createdAt,value
2022-09-06T00:01:25.826Z,32.71
2022-09-06T00:03:53.326Z,32.71
2022-09-06T00:06:22.791Z,32.73
2022-09-06T00:08:50.373Z,32.77
2022-09-06T00:13:57.976Z,32.87
2022-09-06T00:16:30.275Z,32.80
2022-09-06T00:18:57.994Z,32.70
2022-09-06T00:21:29.540Z,32.61
2022-09-06T00:23:57.604Z,32.60
2022-09-06T00:26:26.444Z,32.68
2022-09-06T00:28:55.884Z,32.73
2022-09-06T00:34:09.453Z,32.72
2022-09-06T00:36:37.652Z,32.72
2022-09-06T00:39:06.949Z,32.74
2022-09-06T00:41:38.942Z,32.74
2022-09-06T00:44:07.364Z,32.72
2022-09-06T00:46:42.050Z,32.69
2022-09-06T00:49:27.069Z,32.64
2022-09-06T00:52:24.648Z,32.64
2022-09-06T00:57:58.548Z,32.69
2022-09-06T01:00:27.712Z,32.69
2022-09-06T01:02:56.957Z,32.68
2022-09-06T01:05:54.440Z,32.69
2022-09-06T01:08:35.699Z,32.70
2022-09-06T01:11:09.219Z,32.59
2022-09-06T01:13:55.684Z,32.57
2022-09-06T01:27:47.313Z,32.23
2022-09-06T01:30:17.679Z,32.13
2022-09-06T01:33:00.357Z,32.13
2022-09-06T01:35:43.125Z,32.14
2022-09-06T01:38:10.847Z,32.14
2022-09-06T01:40:38.239Z,32.19
2022-09-06T01:48:58.172Z,32.30
2022-09-06T01:51:53.810Z,32.26
2022-09-06T01:54:40.926Z,32.19
2022-09-06T01:57:16.886Z,32.11
2022-09-06T02:00:14.286Z,32.08
2022-09-06T02:02:50.455Z,32.07
2022-09-06T02:05:28.788Z,32.10
2022-09-06T02:13:58.833Z,32.03
2022-09-06T02:16:29.986Z,31.99
2022-09-06T02:19:06.849Z,31.99
2022-09-06T02:21:40.297Z,31.98
2022-09-06T02:24:18.381Z,31.93
2022-09-06T02:26:48.278Z,31.89
2022-09-06T02:29:17.886Z,31.77
2022-09-06T02:34:47.290Z,30.85
2022-09-06T02:37:17.623Z,30.75
2022-09-06T02:39:47.593Z,30.71
2022-09-06T02:42:17.559Z,30.68
2022-09-06T02:44:46.922Z,30.64
2022-09-06T02:47:18.629Z,30.65
2022-09-06T02:49:49.592Z,30.65
2022-09-06T03:00:08.500Z,30.63
2022-09-06T03:02:37.939Z,30.60
2022-09-06T03:05:07.254Z,30.56
2022-09-06T03:07:36.664Z,30.55
2022-09-06T03:10:06.254Z,30.53
2022-09-06T03:12:33.905Z,30.54
2022-09-06T03:15:03.481Z,30.52
2022-09-06T03:21:50.849Z,30.52
2022-09-06T03:24:18.274Z,30.54
2022-09-06T03:26:47.098Z,30.53
2022-09-06T03:29:16.314Z,30.50
2022-09-06T03:31:43.658Z,30.47
2022-09-06T03:34:12.997Z,30.45
2022-09-06T03:36:40.406Z,30.46
2022-09-06T03:39:08.559Z,30.46
2022-09-06T03:46:48.156Z,30.42
2022-09-06T03:49:17.386Z,30.41
2022-09-06T03:51:46.341Z,30.39
2022-09-06T03:54:13.835Z,30.36
2022-09-06T03:56:43.099Z,30.35
2022-09-06T03:59:10.570Z,30.32
2022-09-06T04:01:38.125Z,30.33
2022-09-06T04:08:38.210Z,30.29
2022-09-06T04:11:10.376Z,30.30
2022-09-06T04:13:41.495Z,30.33
2022-09-06T04:16:08.967Z,30.30
2022-09-06T04:18:37.875Z,30.29
2022-09-06T04:21:07.502Z,30.28
2022-09-06T04:23:39.932Z,30.27
2022-09-06T04:26:08.950Z,30.25
2022-09-06T04:33:47.499Z,30.26
2022-09-06T04:36:16.889Z,30.25
2022-09-06T04:38:47.047Z,30.23
2022-09-06T04:41:18.611Z,30.18
2022-09-06T04:43:50.224Z,30.21
2022-09-06T04:46:26.836Z,30.22
2022-09-06T04:48:56.492Z,30.18
2022-09-06T04:59:12.285Z,30.16
2022-09-06T05:01:39.622Z,30.16
2022-09-06T05:04:09.811Z,30.18
2022-09-06T05:06:39.187Z,30.13
2022-09-06T05:09:08.047Z,30.13
2022-09-06T05:11:37.414Z,30.13
2022-09-06T05:14:07.530Z,30.13
2022-09-06T05:21:42.527Z,30.13
2022-09-06T05:24:10.278Z,30.14
2022-09-06T05:26:38.381Z,30.13
2022-09-06T05:29:09.882Z,30.12
2022-09-06T05:31:38.320Z,30.12
2022-09-06T05:34:07.604Z,30.11
2022-09-06T05:36:37.316Z,30.11
2022-09-06T05:44:28.152Z,30.35
2022-09-06T05:46:57.611Z,30.20
2022-09-06T05:49:27.286Z,30.15
2022-09-06T05:51:56.229Z,30.11
2022-09-06T05:54:24.752Z,30.09
2022-09-06T05:56:53.746Z,30.08
2022-09-06T05:59:21.113Z,30.06
2022-09-06T06:06:54.777Z,30.03
2022-09-06T06:09:23.666Z,30.03
2022-09-06T06:11:50.992Z,30.01
2022-09-06T06:14:18.436Z,29.92
2022-09-06T06:16:47.356Z,29.91
2022-09-06T06:19:17.131Z,29.92
2022-09-06T06:21:44.837Z,29.92
2022-09-06T06:32:21.188Z,29.95
2022-09-06T06:34:48.579Z,29.99
2022-09-06T06:37:17.757Z,30.01
2022-09-06T06:39:47.242Z,30.03
2022-09-06T06:42:17.316Z,30.03
2022-09-06T06:44:53.353Z,30.03
2022-09-06T06:47:21.166Z,30.02
2022-09-06T06:49:49.516Z,30.03
2022-09-06T06:59:47.574Z,30.02
2022-09-06T07:02:17.603Z,30.01
2022-09-06T07:04:46.787Z,29.99
2022-09-06T07:12:47.545Z,29.91
2022-09-06T07:15:19.305Z,29.89
2022-09-06T07:24:10.556Z,29.81
2022-09-06T07:26:39.837Z,29.81
2022-09-06T07:29:09.008Z,29.78
2022-09-06T07:34:28.273Z,29.75
2022-09-06T07:37:01.196Z,29.75
2022-09-06T07:42:08.547Z,29.73
2022-09-06T07:44:37.909Z,29.71
2022-09-06T07:55:34.247Z,29.65
2022-09-06T07:58:03.113Z,29.64
2022-09-06T08:03:48.727Z,29.58
2022-09-06T08:06:17.686Z,29.57
2022-09-06T08:09:02.166Z,29.56
2022-09-06T08:11:31.773Z,29.56
2022-09-06T08:14:00.637Z,29.53
2022-09-06T08:16:30.366Z,29.54
2022-09-06T08:19:01.489Z,29.50
2022-09-06T08:26:47.610Z,29.45
2022-09-06T08:29:17.037Z,29.44
2022-09-06T08:31:47.187Z,29.43
2022-09-06T08:34:17.047Z,29.38
2022-09-06T08:36:47.052Z,29.38
2022-09-06T08:39:14.534Z,29.38
2022-09-06T08:47:31.558Z,29.34
2022-09-06T08:50:08.642Z,29.35
2022-09-06T08:53:18.552Z,29.35
2022-09-06T08:56:19.553Z,29.30
2022-09-06T08:58:58.772Z,29.27
2022-09-06T09:01:33.894Z,29.26
2022-09-06T09:04:07.546Z,29.25
2022-09-06T09:11:52.788Z,29.19
2022-09-06T09:14:37.176Z,29.22
2022-09-06T09:17:37.609Z,29.20
2022-09-06T09:20:08.210Z,29.17
2022-09-06T09:22:37.914Z,29.16
2022-09-06T09:25:19.064Z,29.16
2022-09-06T09:27:57.987Z,29.14
2022-09-06T09:38:51.572Z,29.12
2022-09-06T09:41:37.528Z,29.13
2022-09-06T09:44:19.851Z,29.13
2022-09-06T09:46:48.963Z,29.11
2022-09-06T09:49:22.326Z,29.12
2022-09-06T09:52:17.997Z,29.12
2022-09-06T10:00:39.826Z,28.97
2022-09-06T10:03:14.792Z,28.97
2022-09-06T10:06:02.754Z,29.01
2022-09-06T10:08:34.001Z,29.02
2022-09-06T10:11:01.454Z,29.02
2022-09-06T10:13:31.339Z,29.07
2022-09-06T10:16:03.470Z,29.09
2022-09-06T10:21:29.370Z,29.11
2022-09-06T10:27:02.380Z,29.14
2022-09-06T10:30:00.313Z,29.12
2022-09-06T10:32:38.088Z,29.10
2022-09-06T10:35:25.021Z,29.09
2022-09-06T10:38:13.285Z,29.07
2022-09-06T10:46:20.055Z,28.99
2022-09-06T10:48:49.195Z,28.99
2022-09-06T10:51:22.268Z,28.99
2022-09-06T10:54:10.401Z,28.99
2022-09-06T11:00:07.563Z,28.94
2022-09-06T11:11:07.874Z,28.93
2022-09-06T11:13:35.405Z,28.90
2022-09-06T11:16:18.596Z,28.91
2022-09-06T11:19:03.517Z,28.92
2022-09-06T11:21:50.931Z,28.90
2022-09-06T11:32:17.872Z,28.92
2022-09-06T11:35:10.997Z,28.94
2022-09-06T11:37:45.647Z,28.96
2022-09-06T11:42:59.227Z,29.03
2022-09-06T11:45:50.980Z,29.08
2022-09-06T11:48:24.469Z,29.13
2022-09-06T11:53:49.182Z,29.30
2022-09-06T11:56:40.215Z,29.46
2022-09-06T11:59:28.288Z,29.56
2022-09-06T12:01:57.575Z,29.70
2022-09-06T12:04:44.812Z,29.82
2022-09-06T12:07:13.600Z,29.98
2022-09-06T12:09:43.642Z,30.13
2022-09-06T12:20:08.645Z,30.87
2022-09-06T12:22:38.738Z,31.07
2022-09-06T12:25:21.012Z,31.23
2022-09-06T12:28:00.734Z,31.39
2022-09-06T12:30:43.855Z,31.54
2022-09-06T12:33:26.323Z,31.69
2022-09-06T12:40:58.835Z,31.75
2022-09-06T12:43:30.966Z,31.94
2022-09-06T12:45:59.970Z,32.04
2022-09-06T12:48:33.344Z,32.13
2022-09-06T12:51:19.961Z,32.35
2022-09-06T12:54:03.982Z,32.72
2022-09-06T12:56:34.552Z,32.98
2022-09-06T13:03:41.130Z,32.67
2022-09-06T13:06:22.231Z,32.62
2022-09-06T13:08:59.398Z,32.55
2022-09-06T13:11:32.572Z,32.58
2022-09-06T13:14:01.979Z,32.55
2022-09-06T13:16:38.633Z,32.50
2022-09-06T13:23:12.934Z,32.62
2022-09-06T13:25:52.230Z,32.57
2022-09-06T13:28:34.487Z,32.49
2022-09-06T13:31:21.968Z,32.48
2022-09-06T13:34:01.908Z,32.45
2022-09-06T13:36:31.318Z,32.46
2022-09-06T13:39:03.879Z,32.60
2022-09-06T13:46:11.678Z,33.63
2022-09-06T13:48:39.738Z,33.99
2022-09-06T13:51:09.747Z,34.38
2022-09-06T13:53:39.998Z,34.47
2022-09-06T13:56:11.827Z,34.55
2022-09-06T13:58:39.556Z,34.37
2022-09-06T14:01:09.860Z,34.18
2022-09-06T14:09:09.927Z,33.84
2022-09-06T14:11:39.261Z,33.91
2022-09-06T14:14:09.631Z,34.16
2022-09-06T14:16:39.118Z,34.53
2022-09-06T14:19:08.356Z,34.74
2022-09-06T14:21:39.320Z,34.64
2022-09-06T14:24:08.316Z,34.49
2022-09-06T14:33:00.008Z,35.34
2022-09-06T14:35:32.761Z,35.75
2022-09-06T14:38:00.292Z,36.11
2022-09-06T14:40:29.515Z,36.45
2022-09-06T14:42:59.620Z,36.70
2022-09-06T14:45:27.243Z,36.95
2022-09-06T14:47:54.729Z,37.21
2022-09-06T14:54:59.227Z,37.21
2022-09-06T14:57:27.859Z,37.22
2022-09-06T14:59:55.439Z,37.07
2022-09-06T15:02:31.391Z,36.88
2022-09-06T15:04:59.575Z,36.47
2022-09-06T15:07:28.523Z,36.29
2022-09-06T15:09:56.267Z,36.41
2022-09-06T15:12:28.055Z,36.28
2022-09-06T15:20:10.258Z,35.89
2022-09-06T15:22:39.554Z,35.81
2022-09-06T15:25:09.130Z,35.67
2022-09-06T15:27:38.522Z,35.61
2022-09-06T15:30:08.098Z,35.74
2022-09-06T15:32:35.418Z,35.81
2022-09-06T15:35:06.137Z,35.77
2022-09-06T15:37:33.525Z,35.75
2022-09-06T15:44:59.652Z,36.03
2022-09-06T15:47:27.084Z,35.99
2022-09-06T15:49:54.473Z,36.21
2022-09-06T15:52:22.090Z,36.80
2022-09-06T15:55:11.429Z,37.42
2022-09-06T15:57:42.017Z,37.45
2022-09-06T16:00:11.626Z,37.25
2022-09-06T16:07:44.563Z,38.04
2022-09-06T16:10:12.817Z,38.28
2022-09-06T16:12:40.415Z,38.03
2022-09-06T16:15:08.373Z,37.73
2022-09-06T16:17:37.618Z,37.45
2022-09-06T16:20:05.358Z,37.24
2022-09-06T16:22:32.932Z,37.03
2022-09-06T16:27:40.498Z,36.76
2022-09-06T16:30:11.305Z,37.18
2022-09-06T16:32:40.150Z,37.59
2022-09-06T16:35:12.311Z,38.11
2022-09-06T16:37:39.990Z,38.48
2022-09-06T16:40:09.755Z,38.53
2022-09-06T16:42:39.012Z,38.73
2022-09-06T16:45:08.207Z,39.14
2022-09-06T16:52:40.232Z,39.13
2022-09-06T16:55:09.351Z,38.61
2022-09-06T16:57:39.819Z,38.43
2022-09-06T17:00:08.483Z,38.45
2022-09-06T17:02:43.753Z,38.39
2022-09-06T17:05:15.486Z,38.30
2022-09-06T17:07:42.814Z,38.29
2022-09-06T17:14:53.693Z,38.47
2022-09-06T17:17:21.818Z,38.33
2022-09-06T17:19:50.009Z,38.06
2022-09-06T17:22:20.539Z,37.82
2022-09-06T17:24:50.206Z,37.66
2022-09-06T17:27:19.166Z,37.69
2022-09-06T17:29:48.446Z,38.23
2022-09-06T17:32:17.967Z,38.42
2022-09-06T17:39:50.274Z,37.85
2022-09-06T17:42:19.581Z,38.14
2022-09-06T17:44:48.926Z,38.38
2022-09-06T17:47:18.493Z,38.28
2022-09-06T17:49:48.549Z,38.35
2022-09-06T17:52:16.175Z,38.30
2022-09-06T17:54:48.551Z,38.55
2022-09-06T18:01:36.277Z,38.52
2022-09-06T18:04:08.856Z,38.32
2022-09-06T18:06:40.701Z,38.49
2022-09-06T18:09:15.315Z,38.63
2022-09-06T18:11:45.874Z,38.72
2022-09-06T18:14:23.118Z,38.69
2022-09-06T18:16:52.352Z,38.66
2022-09-06T18:22:12.188Z,38.66
2022-09-06T18:24:40.120Z,38.77
2022-09-06T18:27:08.060Z,38.80
2022-09-06T18:29:35.558Z,38.77
2022-09-06T18:32:03.942Z,38.72
2022-09-06T18:34:31.496Z,38.95
2022-09-06T18:37:00.348Z,39.10
2022-09-06T18:47:23.545Z,38.55
2022-09-06T18:49:51.074Z,38.68
2022-09-06T18:52:20.635Z,38.79
2022-09-06T18:54:49.325Z,38.72
2022-09-06T18:57:19.096Z,38.66
2022-09-06T18:59:47.929Z,38.51
2022-09-06T19:02:15.403Z,38.52
2022-09-06T19:07:22.240Z,38.31
2022-09-06T19:09:49.934Z,38.46
2022-09-06T19:12:19.315Z,38.44
2022-09-06T19:14:47.764Z,38.46
2022-09-06T19:17:15.210Z,38.28
2022-09-06T19:19:42.570Z,37.97
2022-09-06T19:22:10.037Z,37.63
2022-09-06T19:27:19.861Z,37.78
2022-09-06T19:29:48.186Z,37.63
2022-09-06T19:32:19.511Z,37.36
2022-09-06T19:34:48.801Z,37.41
2022-09-06T19:37:24.969Z,37.58
2022-09-06T19:39:53.502Z,37.55
2022-09-06T19:42:20.851Z,37.48
2022-09-06T19:52:55.742Z,37.26
2022-09-06T19:55:23.796Z,37.26
2022-09-06T19:57:51.515Z,37.27
2022-09-06T20:00:22.003Z,37.23
2022-09-06T20:02:50.470Z,37.23
2022-09-06T20:05:19.630Z,37.27
2022-09-06T20:07:47.407Z,37.35
2022-09-06T20:18:00.868Z,37.20
2022-09-06T20:20:28.774Z,37.03
2022-09-06T20:22:56.106Z,37.13
2022-09-06T20:25:23.562Z,37.29
2022-09-06T20:27:50.918Z,37.30
2022-09-06T20:30:20.970Z,37.31
2022-09-06T20:32:52.784Z,37.32
2022-09-06T20:40:29.937Z,37.23
2022-09-06T20:42:59.504Z,37.17
2022-09-06T20:45:27.893Z,37.04
2022-09-06T20:47:59.193Z,36.99
2022-09-06T20:50:29.800Z,36.99
2022-09-06T20:52:59.226Z,36.97
2022-09-06T20:55:28.225Z,36.81
2022-09-06T21:05:51.196Z,36.73
2022-09-06T21:08:21.202Z,36.67
2022-09-06T21:10:59.150Z,36.65
2022-09-06T21:13:29.287Z,36.62
2022-09-06T21:15:59.941Z,36.42
2022-09-06T21:18:31.606Z,36.08
2022-09-06T21:21:06.453Z,35.85
2022-09-06T21:28:51.349Z,35.21
2022-09-06T21:31:24.967Z,35.04
2022-09-06T21:33:54.978Z,34.86
2022-09-06T21:36:30.015Z,34.68
2022-09-06T21:39:10.397Z,34.55
2022-09-06T21:41:42.106Z,34.45
2022-09-06T21:44:13.176Z,34.42
2022-09-06T21:50:05.954Z,34.17
2022-09-06T21:52:33.527Z,34.12
2022-09-06T21:55:01.016Z,34.07
2022-09-06T21:57:30.400Z,34.00
2022-09-06T21:59:59.728Z,33.94
2022-09-06T22:02:29.514Z,33.91
2022-09-06T22:04:59.330Z,33.87
2022-09-06T22:11:36.151Z,33.67
2022-09-06T22:14:10.929Z,33.61
2022-09-06T22:16:40.887Z,33.53
2022-09-06T22:19:11.115Z,33.41
2022-09-06T22:21:42.703Z,33.33
2022-09-06T22:24:12.471Z,33.25
2022-09-06T22:29:31.705Z,33.17
2022-09-06T22:32:01.961Z,33.16
2022-09-06T22:34:32.076Z,33.10
2022-09-06T22:37:01.640Z,33.09
2022-09-06T22:39:31.173Z,33.05
2022-09-06T22:42:03.680Z,33.01
2022-09-06T22:44:32.019Z,32.98
2022-09-06T22:47:01.318Z,32.93
2022-09-06T22:52:12.642Z,32.84
2022-09-06T22:54:44.407Z,32.81
2022-09-06T22:57:12.518Z,32.77
2022-09-06T22:59:41.706Z,32.72
2022-09-06T23:02:10.996Z,32.70
2022-09-06T23:04:40.505Z,32.70
2022-09-06T23:07:09.923Z,32.73
2022-09-06T23:14:41.774Z,32.76
2022-09-06T23:17:11.479Z,32.77
2022-09-06T23:19:41.970Z,32.76
2022-09-06T23:22:13.039Z,32.75
2022-09-06T23:24:41.418Z,32.71
2022-09-06T23:27:10.606Z,32.69
2022-09-06T23:29:41.455Z,32.70
2022-09-06T23:34:51.290Z,32.72
2022-09-06T23:37:20.614Z,32.74
2022-09-06T23:39:49.645Z,32.71
2022-09-06T23:42:18.997Z,32.59
2022-09-06T23:44:46.902Z,32.46
2022-09-06T23:47:16.029Z,32.38
2022-09-06T23:49:45.334Z,32.37
2022-09-06T23:59:53.385Z,32.49
